Time;durP1;ratioP1;P1;durP2;ratioP2;P2;SDS_P1;SDS_P2;PMS_P1;PMS_P2;Temp;Humidity;BMP_temperature;BMP_pressure;BME280_temperature;BME280_humidity;BME280_pressure;Samples;Min_cycle;Max_cycle;Signal;HPM_P1;HPM_P2
2021/12/25 00:00:00;;;;;;;;;39.00;33.67;;;;;11.75;77.16;99936.72;4979621;28;45517;-68
2021/12/25 00:02:27;;;;;;;;;43.33;35.00;;;;;11.68;77.21;99923.25;4979097;28;45887;-68
2021/12/25 00:04:52;;;;;;;;;42.67;37.00;;;;;11.71;77.34;99943.38;4979258;28;45519;-68
2021/12/25 00:07:18;;;;;;;;;41.67;36.67;;;;;11.65;77.07;99925.44;4979289;28;45242;-68
2021/12/25 00:09:43;;;;;;;;;40.33;36.00;;;;;11.62;77.62;99921.28;4979301;28;45522;-70
2021/12/25 00:12:09;;;;;;;;;47.00;39.67;;;;;11.63;77.42;99928.28;4978814;28;45919;-68
2021/12/25 00:14:35;;;;;;;;;39.33;33.67;;;;;10.50;77.43;99743.13;4994426;28;45377;-67
2021/12/25 00:17:00;;;;;;;;;44.00;36.00;;;;;11.61;77.28;99932.91;4998468;28;45340;-67
2021/12/25 00:19:26;;;;;;;;;40.67;35.67;;;;;11.64;77.72;99929.09;4990458;28;45447;-68
2021/12/25 00:21:52;;;;;;;;;40.67;35.33;;;;;11.67;77.35;99924.25;4993864;28;47560;-68
2021/12/25 00:24:17;;;;;;;;;32.67;31.67;;;;;11.68;77.43;99920.59;4978891;28;46330;-68
2021/12/25 00:26:58;;;;;;;;;38.33;34.00;;;;;11.65;77.41;99909.47;4978897;28;45164;-68
2021/12/25 00:32:31;;;;;;;;;37.00;32.33;;;;;11.53;77.16;99895.69;4978854;28;46565;-69
2021/12/25 00:34:39;;;;;;;;;42.00;36.00;;;;;11.63;77.60;99895.50;4978344;28;45369;-69
2021/12/25 00:37:05;;;;;;;;;35.33;32.67;;;;;11.63;76.98;99891.00;4978802;28;45409;-69
2021/12/25 00:39:31;;;;;;;;;32.33;30.33;;;;;11.61;77.18;99884.16;4978654;28;45315;-68
2021/12/25 00:41:58;;;;;;;;;34.33;33.00;;;;;11.64;77.15;99887.34;4978597;28;47404;-69
2021/12/25 00:44:24;;;;;;;;;33.67;31.67;;;;;11.60;77.15;99880.66;4990315;28;45309;-69
2021/12/25 00:46:50;;;;;;;;;35.67;31.00;;;;;11.59;76.81;99873.69;4998246;28;45177;-68
2021/12/25 00:49:15;;;;;;;;;32.67;27.00;;;;;11.26;77.00;99825.06;4998316;28;45383;-67
2021/12/25 00:51:44;;;;;;;;;31.33;27.00;;;;;11.22;77.25;99821.94;4998258;28;47418;-68
2021/12/25 00:54:10;;;;;;;;;35.00;31.33;;;;;11.55;77.26;99877.69;4998374;28;45340;-68
2021/12/25 00:56:36;;;;;;;;;32.67;29.33;;;;;11.53;77.32;99866.41;4998352;28;45452;-67
2021/12/25 00:59:01;;;;;;;;;27.33;24.67;;;;;11.51;76.84;99860.41;4998705;28;45456;-67
2021/12/25 01:01:29;;;;;;;;;29.67;26.67;;;;;11.64;76.99;99879.34;4997921;28;45476;-68
2021/12/25 01:03:54;;;;;;;;;26.33;25.00;;;;;11.72;76.92;99892.63;4998071;28;45306;-68
2021/12/25 01:06:20;;;;;;;;;24.33;23.33;;;;;11.70;76.31;99881.31;4998056;28;45732;-68
2021/12/25 01:08:46;;;;;;;;;24.67;22.67;;;;;11.64;75.97;99882.00;4994592;28;45440;-68
2021/12/25 01:11:12;;;;;;;;;25.33;24.00;;;;;11.63;76.50;99880.34;4978180;28;46376;-67
2021/12/25 01:13:44;;;;;;;;;25.67;23.33;;;;;11.59;76.14;99876.34;4978067;28;45586;-67
2021/12/25 01:32:06;;;;;;;;;21.00;21.00;;;;;11.05;76.59;99848.72;4977922;28;46453;-68
2021/12/25 01:37:35;;;;;;;;;21.67;20.67;;;;;10.91;76.75;99827.13;4978183;28;45570;-68
2021/12/25 01:48:21;;;;;;;;;25.67;25.00;;;;;11.27;76.86;99902.06;4977865;28;45238;-68
2021/12/25 01:50:47;;;;;;;;;34.33;28.33;;;;;11.28;77.05;99906.38;4976113;28;45193;-67
2021/12/25 01:53:13;;;;;;;;;27.67;26.33;;;;;11.32;76.59;99906.03;4977453;28;45279;-68
2021/12/25 01:55:39;;;;;;;;;29.33;26.00;;;;;11.36;76.71;99916.19;4977500;28;45471;-67
2021/12/25 01:58:05;;;;;;;;;26.33;24.00;;;;;11.24;77.06;99905.06;4977402;28;45534;-69
2021/12/25 02:00:35;;;;;;;;;33.67;31.00;;;;;11.20;77.23;99919.69;4978266;28;45484;-67
2021/12/25 02:03:04;;;;;;;;;27.00;25.33;;;;;10.98;77.42;99880.47;4977304;28;47025;-67
2021/12/25 02:05:29;;;;;;;;;26.67;25.00;;;;;11.05;77.57;99897.44;4977568;28;45599;-68
2021/12/25 02:07:55;;;;;;;;;33.67;31.00;;;;;10.83;77.57;99866.22;4977622;28;45503;-67
2021/12/25 02:10:20;;;;;;;;;31.33;30.00;;;;;11.08;77.56;99925.53;4977581;28;45364;-69
2021/12/25 02:12:47;;;;;;;;;22.67;22.67;;;;;11.11;77.65;99912.72;4977368;28;47645;-67
2021/12/25 02:15:17;;;;;;;;;29.33;26.33;;;;;11.13;77.25;99926.69;4977602;28;45330;-67
2021/12/25 02:18:02;;;;;;;;;33.00;25.00;;;;;11.04;77.34;99917.06;4977408;28;45317;-67
2021/12/25 02:20:37;;;;;;;;;29.33;23.00;;;;;11.09;77.86;99917.38;4977713;28;45520;-68
2021/12/25 02:23:15;;;;;;;;;30.67;28.00;;;;;10.91;77.93;99882.16;4991945;28;47357;-67
2021/12/25 02:25:41;;;;;;;;;26.67;26.33;;;;;11.13;78.03;99916.03;4986333;28;45524;-67
2021/12/25 02:28:07;;;;;;;;;30.67;27.00;;;;;11.21;77.31;99918.72;4996834;28;45492;-67
2021/12/25 02:30:33;;;;;;;;;23.67;23.67;;;;;11.25;77.34;99920.03;4997319;28;45413;-68
2021/12/25 02:32:58;;;;;;;;;31.33;26.00;;;;;10.97;76.90;99852.22;4996756;28;47659;-68
2021/12/25 02:35:26;;;;;;;;;26.67;25.33;;;;;11.34;76.35;99912.03;4996263;28;45438;-68
2021/12/25 02:37:52;;;;;;;;;25.00;23.33;;;;;11.34;76.37;99906.69;4996902;28;45303;-68
2021/12/25 02:40:18;;;;;;;;;24.00;21.67;;;;;11.37;76.94;99915.16;4997137;28;45300;-68
2021/12/25 02:42:43;;;;;;;;;24.00;22.33;;;;;11.39;76.77;99920.31;4996352;28;46387;-67
2021/12/25 02:45:15;;;;;;;;;31.00;25.33;;;;;11.40;76.09;99919.31;4996617;28;45390;-68
2021/12/25 02:47:43;;;;;;;;;28.00;19.33;;;;;11.41;76.31;99905.88;4996424;28;45274;-68
2021/12/25 02:50:10;;;;;;;;;21.00;21.00;;;;;11.41;76.25;99900.56;4994077;28;45368;-68
2021/12/25 02:52:35;;;;;;;;;23.67;23.00;;;;;11.48;76.16;99904.19;4976809;28;45357;-68
2021/12/25 02:55:01;;;;;;;;;23.00;22.33;;;;;11.49;76.25;99900.53;4976890;28;45459;-68
2021/12/25 02:57:26;;;;;;;;;26.00;23.00;;;;;11.10;76.29;99831.25;4976843;28;45874;-68
2021/12/25 02:59:52;;;;;;;;;22.00;22.00;;;;;11.48;75.91;99893.53;4976977;28;45572;-68
2021/12/25 03:02:17;;;;;;;;;25.00;22.67;;;;;11.33;75.85;99873.94;4976858;28;46552;-68
2021/12/25 03:04:46;;;;;;;;;19.67;19.33;;;;;11.49;76.02;99894.38;5009851;28;45425;-67
2021/12/25 03:07:13;;;;;;;;;21.67;21.00;;;;;11.53;75.49;99899.16;4999902;28;45247;-67
2021/12/25 03:09:40;;;;;;;;;21.33;20.67;;;;;11.53;75.75;99906.31;5000219;28;45455;-68
2021/12/25 03:12:08;;;;;;;;;18.33;18.33;;;;;11.56;75.83;99904.16;4999549;28;46371;-68
2021/12/25 03:14:39;;;;;;;;;22.33;21.67;;;;;11.55;75.35;99891.00;4999550;28;45315;-68
2021/12/25 03:17:04;;;;;;;;;24.00;23.00;;;;;11.64;75.89;99908.63;4983153;28;45500;-68
2021/12/25 03:19:34;;;;;;;;;23.33;21.33;;;;;11.61;76.09;99902.78;4980208;28;45533;-68
2021/12/25 03:22:02;;;;;;;;;18.33;17.33;;;;;11.68;75.60;99903.78;4979838;28;46875;-67
2021/12/25 03:24:29;;;;;;;;;27.00;23.33;;;;;11.62;75.62;99884.03;4979840;28;45262;-68
2021/12/25 03:26:56;;;;;;;;;17.00;17.00;;;;;11.69;75.43;99890.31;4979934;28;46197;-68
2021/12/25 03:29:23;;;;;;;;;25.00;23.00;;;;;11.27;75.60;99822.25;4980051;28;45554;-68
2021/12/25 03:31:49;;;;;;;;;18.33;17.00;;;;;11.77;75.54;99898.25;4979654;28;46096;-68
2021/12/25 03:34:15;;;;;;;;;14.67;14.67;;;;;11.80;75.24;99897.09;4978485;28;45497;-68
2021/12/25 03:36:41;;;;;;;;;20.33;19.00;;;;;11.71;75.04;99892.78;4979746;28;45263;-68
2021/12/25 03:39:07;;;;;;;;;20.00;15.33;;;;;11.76;74.88;99901.09;4979897;28;45256;-68
2021/12/25 03:41:33;;;;;;;;;18.33;17.33;;;;;11.82;75.34;99917.25;4980036;28;46661;-68
2021/12/25 03:44:00;;;;;;;;;19.67;16.33;;;;;11.54;75.16;99866.22;4979868;28;45554;-68
2021/12/25 03:46:28;;;;;;;;;17.67;17.67;;;;;11.83;75.13;99910.09;4979493;28;45422;-68
2021/12/25 03:59:33;;;;;;;;;22.00;17.67;;;;;11.91;74.68;99919.88;4979816;28;45447;-68
2021/12/25 04:02:04;;;;;;;;;18.33;17.33;;;;;11.92;75.27;99917.03;4979323;28;46358;-67
2021/12/25 04:04:39;;;;;;;;;14.33;14.33;;;;;11.93;74.56;99924.03;4979560;28;45311;-67
2021/12/25 04:07:16;;;;;;;;;21.33;19.67;;;;;11.92;74.78;99914.38;4979669;28;45416;-68
2021/12/25 04:09:42;;;;;;;;;21.67;17.00;;;;;11.98;74.63;99920.84;4979518;28;45615;-68
2021/12/25 04:12:11;;;;;;;;;22.00;19.67;;;;;11.63;74.50;99879.53;4979159;28;46534;-68
2021/12/25 04:14:38;;;;;;;;;22.00;18.67;;;;;11.96;74.45;99922.84;4978901;28;45333;-68
2021/12/25 04:17:04;;;;;;;;;24.33;20.33;;;;;11.94;75.32;99923.03;4979175;28;45479;-68
2021/12/25 04:19:29;;;;;;;;;16.00;15.67;;;;;11.93;74.84;99929.34;4980367;28;45621;-68
2021/12/25 04:22:02;;;;;;;;;20.33;19.33;;;;;11.91;75.26;99911.91;4978784;28;45999;-68
2021/12/25 04:24:31;;;;;;;;;20.00;18.33;;;;;11.99;74.88;99925.16;4979094;28;45420;-68
2021/12/25 04:26:57;;;;;;;;;27.00;18.50;;;;;11.76;74.46;99879.78;4979103;28;45419;-68
2021/12/25 05:02:03;;;;;;;;;21.67;21.67;;;;;12.01;74.39;99904.50;4978707;28;45364;-67
2021/12/25 05:04:41;;;;;;;;;24.00;20.67;;;;;12.11;74.78;99926.47;4978172;28;47346;-68
2021/12/25 05:07:08;;;;;;;;;22.33;21.33;;;;;11.86;74.92;99881.28;4978214;28;45284;-67
2021/12/25 05:09:33;;;;;;;;;23.33;21.33;;;;;11.96;74.79;99904.22;4977164;28;45421;-68
2021/12/25 05:11:59;;;;;;;;;26.67;25.33;;;;;11.07;74.47;99756.28;4978624;28;45455;-68
2021/12/25 05:14:24;;;;;;;;;27.00;20.67;;;;;12.00;75.14;99913.50;4978289;28;46654;-67
2021/12/25 05:16:50;;;;;;;;;20.33;18.67;;;;;12.09;74.84;99923.13;4978368;28;45445;-68
2021/12/25 05:19:15;;;;;;;;;13.33;13.33;;;;;12.07;74.81;99928.66;4978439;28;45527;-67
2021/12/25 05:21:41;;;;;;;;;22.00;18.33;;;;;12.03;74.94;99924.66;4960855;28;45237;-68
2021/12/25 05:24:06;;;;;;;;;27.00;22.00;;;;;12.00;75.07;99924.16;4978261;28;47452;-68
2021/12/25 05:26:33;;;;;;;;;23.00;20.67;;;;;11.98;74.67;99921.69;4977320;28;45262;-68
2021/12/25 05:29:00;;;;;;;;;25.00;20.67;;;;;11.93;75.04;99912.53;4978233;28;45563;-68
2021/12/25 05:31:28;;;;;;;;;23.33;20.33;;;;;11.94;74.58;99922.19;4993324;28;45666;-68
2021/12/25 05:33:53;;;;;;;;;19.33;19.33;;;;;12.04;74.90;99928.16;4977931;28;45513;-68
2021/12/25 05:36:19;;;;;;;;;28.00;22.00;;;;;11.97;75.37;99921.84;4978331;28;45483;-68
2021/12/25 05:38:45;;;;;;;;;21.00;19.33;;;;;12.05;74.80;99927.16;4977975;28;45400;-68
2021/12/25 05:41:12;;;;;;;;;29.33;25.00;;;;;12.07;74.94;99930.47;4978320;28;45416;-67
2021/12/25 05:43:38;;;;;;;;;23.67;21.67;;;;;12.08;74.68;99935.63;4977956;28;47424;-67
2021/12/25 05:46:03;;;;;;;;;24.33;20.67;;;;;12.02;74.70;99925.69;4977443;28;45296;-67
2021/12/25 05:48:35;;;;;;;;;24.00;21.00;;;;;12.07;74.60;99930.47;4978534;28;45424;-67
2021/12/25 05:51:04;;;;;;;;;20.33;18.67;;;;;11.83;75.19;99897.63;4978270;28;45520;-68
2021/12/25 05:53:29;;;;;;;;;24.00;21.33;;;;;11.93;75.02;99901.91;4977486;28;45846;-68
2021/12/25 05:55:55;;;;;;;;;24.33;22.00;;;;;12.04;74.96;99926.34;4977606;28;45250;-69
2021/12/25 05:58:20;;;;;;;;;24.00;22.00;;;;;12.05;75.02;99927.16;4977620;28;45513;-68
2021/12/25 06:00:46;;;;;;;;;21.00;18.00;;;;;12.05;75.10;99927.16;4977883;28;45219;-68
2021/12/25 06:03:11;;;;;;;;;22.33;21.67;;;;;12.07;75.18;99936.63;4977457;28;46708;-69
2021/12/25 06:05:36;;;;;;;;;22.67;21.00;;;;;12.09;74.78;99929.28;4977527;28;45243;-67
2021/12/25 06:08:02;;;;;;;;;22.67;22.33;;;;;12.01;75.49;99921.31;4977781;28;45267;-67
2021/12/25 06:10:28;;;;;;;;;28.33;23.33;;;;;11.94;74.69;99919.53;4977938;28;45540;-68
2021/12/25 06:12:55;;;;;;;;;26.00;23.00;;;;;11.93;74.82;99910.72;4977520;28;46460;-67
2021/12/25 06:15:22;;;;;;;;;20.67;19.33;;;;;12.08;75.18;99937.47;4977537;28;45570;-67
2021/12/25 06:17:47;;;;;;;;;20.33;20.00;;;;;12.06;75.23;99942.97;4977312;28;45472;-68
2021/12/25 06:20:13;;;;;;;;;19.00;19.00;;;;;12.06;75.53;99934.16;5007767;28;45579;-68
2021/12/25 06:22:38;;;;;;;;;22.67;20.00;;;;;12.07;75.42;99941.13;4996806;28;46711;-68
2021/12/25 06:25:06;;;;;;;;;20.33;19.33;;;;;12.06;75.07;99936.81;4996893;28;45187;-68
2021/12/25 06:27:32;;;;;;;;;21.67;21.67;;;;;12.11;74.89;99942.44;4997067;28;45254;-67
2021/12/25 06:30:00;;;;;;;;;22.00;19.00;;;;;11.70;75.25;99873.31;4997442;28;45563;-68
2021/12/25 06:32:25;;;;;;;;;28.00;22.00;;;;;11.85;75.33;99895.59;4996890;28;47740;-68
2021/12/25 06:34:51;;;;;;;;;20.67;19.67;;;;;12.11;75.19;99948.59;4996851;28;45427;-67
2021/12/25 06:37:18;;;;;;;;;21.67;19.33;;;;;12.11;75.05;99953.94;4997550;28;45387;-68
2021/12/25 06:39:44;;;;;;;;;22.67;19.67;;;;;12.06;75.07;99942.13;5000390;28;45737;-68
2021/12/25 06:42:09;;;;;;;;;21.33;18.67;;;;;12.08;74.89;99942.78;5000095;28;46156;-68
2021/12/25 06:44:36;;;;;;;;;23.00;21.33;;;;;12.07;75.44;99960.63;4999491;28;45511;-67
2021/12/25 06:47:01;;;;;;;;;20.33;20.00;;;;;11.99;75.21;99941.16;5000292;28;45192;-67
2021/12/25 06:49:28;;;;;;;;;23.33;23.33;;;;;12.01;75.06;99952.47;5000458;28;45232;-68
2021/12/25 06:51:54;;;;;;;;;23.00;22.00;;;;;12.02;75.04;99948.81;4999929;28;47331;-68
2021/12/25 06:54:20;;;;;;;;;23.67;23.67;;;;;12.00;75.47;99950.81;4999886;28;45389;-68
2021/12/25 06:56:47;;;;;;;;;26.67;23.00;;;;;11.97;75.38;99940.50;5000180;28;45540;-68
2021/12/25 06:59:13;;;;;;;;;24.00;21.00;;;;;12.03;75.06;99953.16;5000189;28;45360;-68
2021/12/25 07:01:39;;;;;;;;;20.00;19.33;;;;;12.04;75.47;99944.97;4999836;28;45332;-67
2021/12/25 07:04:07;;;;;;;;;24.00;22.33;;;;;11.88;75.53;99929.88;4999897;28;45394;-68
2021/12/25 07:06:32;;;;;;;;;21.33;21.00;;;;;11.87;75.30;99936.22;5000098;28;45380;-67
2021/12/25 07:08:58;;;;;;;;;22.67;21.67;;;;;12.01;75.35;99953.28;4999606;28;45354;-68
2021/12/25 07:11:23;;;;;;;;;27.33;27.00;;;;;12.03;75.58;99955.81;4997867;28;47044;-68
2021/12/25 07:13:51;;;;;;;;;28.00;24.67;;;;;11.81;75.69;99920.94;4999713;28;45305;-68
2021/12/25 07:16:17;;;;;;;;;22.00;18.67;;;;;12.01;75.33;99968.44;5000083;28;45458;-68
2021/12/25 07:18:42;;;;;;;;;22.00;18.67;;;;;12.02;75.84;99964.81;4999882;28;45305;-68
2021/12/25 07:21:07;;;;;;;;;24.33;23.33;;;;;11.84;75.85;99936.56;4999592;28;45732;-68
2021/12/25 07:23:33;;;;;;;;;21.67;20.00;;;;;12.00;75.48;99956.13;4999658;28;45523;-68
2021/12/25 07:25:59;;;;;;;;;22.67;21.00;;;;;11.55;75.42;99881.19;4999729;28;45504;-69
2021/12/25 07:28:28;;;;;;;;;23.33;22.33;;;;;11.87;75.18;99930.06;4999770;28;45340;-68
2021/12/25 07:30:55;;;;;;;;;25.67;24.00;;;;;12.03;75.00;99955.81;4998265;28;46603;-69
2021/12/25 07:33:20;;;;;;;;;20.67;19.33;;;;;11.70;74.97;99910.59;4999560;28;45317;-67
2021/12/25 07:35:46;;;;;;;;;21.33;21.00;;;;;11.99;75.32;99965.94;4999247;28;45480;-68
2021/12/25 07:38:11;;;;;;;;;25.00;23.00;;;;;11.98;75.32;99968.78;4999348;28;45472;-68
2021/12/25 07:40:37;;;;;;;;;23.33;21.33;;;;;11.85;74.93;99926.75;4999277;28;45380;-68
2021/12/25 07:43:03;;;;;;;;;24.00;21.00;;;;;12.02;75.62;99954.16;4999481;28;45377;-67
2021/12/25 07:45:29;;;;;;;;;18.00;17.33;;;;;12.06;75.47;99960.78;4999303;28;45408;-68
2021/12/25 07:48:00;;;;;;;;;20.67;19.33;;;;;11.92;75.25;99945.50;4999080;28;45258;-68
2021/12/25 07:50:28;;;;;;;;;22.67;22.67;;;;;11.98;75.05;99958.13;4998422;28;46416;-68
2021/12/25 07:52:54;;;;;;;;;24.00;24.00;;;;;12.06;75.08;99968.78;4997855;28;45528;-69
2021/12/25 07:55:19;;;;;;;;;22.67;21.33;;;;;12.02;74.90;99959.47;4999314;28;45211;-68
2021/12/25 07:57:45;;;;;;;;;28.33;26.00;;;;;11.97;75.06;99940.50;4997868;28;45264;-67
2021/12/25 08:00:12;;;;;;;;;25.33;23.00;;;;;12.07;74.81;99967.78;4999230;28;45603;-68
2021/12/25 08:02:38;;;;;;;;;21.33;21.33;;;;;12.02;75.57;99964.81;4998992;28;45476;-68
2021/12/25 08:05:04;;;;;;;;;25.00;22.00;;;;;11.95;75.41;99958.50;4994821;28;45520;-67
2021/12/25 08:07:30;;;;;;;;;25.33;23.00;;;;;12.04;75.28;99976.13;4979665;28;45377;-67
2021/12/25 08:10:03;;;;;;;;;24.67;24.00;;;;;12.09;75.11;99979.91;4979144;28;46901;-68
2021/12/25 08:12:28;;;;;;;;;28.00;26.00;;;;;12.13;75.01;99973.25;4994299;28;45538;-68
2021/12/25 08:14:53;;;;;;;;;25.67;24.33;;;;;11.75;75.39;99921.56;4979334;28;45500;-68
2021/12/25 08:17:19;;;;;;;;;24.00;22.00;;;;;12.08;75.42;99975.59;4979340;28;45659;-69
2021/12/25 08:19:44;;;;;;;;;23.00;22.33;;;;;12.09;75.01;99984.41;4979008;28;46901;-68
2021/12/25 08:22:10;;;;;;;;;29.00;26.67;;;;;12.08;75.04;99986.25;4978919;28;45370;-67
2021/12/25 08:24:35;;;;;;;;;26.67;25.00;;;;;12.06;74.65;99977.59;4979537;28;45547;-68
2021/12/25 08:27:04;;;;;;;;;26.00;21.33;;;;;11.75;75.43;99926.06;4979297;28;45492;-69
2021/12/25 08:29:31;;;;;;;;;28.33;24.33;;;;;12.08;75.18;99985.44;4977700;28;46731;-67
2021/12/25 08:31:57;;;;;;;;;33.00;24.00;;;;;11.74;75.33;99927.06;4978932;28;45231;-68
2021/12/25 08:34:22;;;;;;;;;25.00;21.67;;;;;12.07;75.38;99994.41;4979176;28;45543;-69
2021/12/25 08:36:47;;;;;;;;;29.67;27.00;;;;;12.06;74.94;99979.44;4996908;28;45326;-68
2021/12/25 08:39:13;;;;;;;;;26.00;25.00;;;;;11.92;75.30;99962.31;4998353;28;46493;-68
2021/12/25 08:41:38;;;;;;;;;27.67;25.67;;;;;11.79;75.27;99949.53;4998636;28;45191;-68
2021/12/25 08:44:18;;;;;;;;;22.67;22.00;;;;;12.05;75.17;99989.25;4998525;28;45192;-68
2021/12/25 08:47:05;;;;;;;;;27.67;26.33;;;;;12.08;74.84;99988.09;4998402;28;45516;-68
2021/12/25 08:49:32;;;;;;;;;25.67;25.67;;;;;12.13;75.27;99991.06;4997860;28;47301;-68
2021/12/25 08:52:00;;;;;;;;;34.67;28.67;;;;;12.15;74.57;99992.53;4998019;28;45420;-68
2021/12/25 08:54:26;;;;;;;;;25.33;24.00;;;;;12.20;74.96;99997.34;4998063;28;45371;-68
2021/12/25 08:56:52;;;;;;;;;25.00;23.67;;;;;12.23;74.37;99989.03;4998416;28;45343;-67
2021/12/25 08:59:17;;;;;;;;;27.00;22.33;;;;;12.24;75.05;99990.69;4998098;28;46729;-68
2021/12/25 09:01:43;;;;;;;;;28.00;23.33;;;;;12.17;74.60;99973.72;4996927;28;45391;-67
2021/12/25 09:04:08;;;;;;;;;29.00;27.33;;;;;12.19;74.45;99996.53;4998395;28;45409;-67
2021/12/25 09:06:34;;;;;;;;;26.67;26.00;;;;;11.82;74.37;99932.41;4997977;28;45543;-69
2021/12/25 09:09:00;;;;;;;;;27.67;22.67;;;;;12.28;74.11;99992.00;4997741;28;46498;-67
2021/12/25 09:11:25;;;;;;;;;27.33;25.00;;;;;12.32;74.13;99993.31;4997847;28;45591;-68
2021/12/25 09:13:51;;;;;;;;;24.00;21.00;;;;;12.35;73.97;99998.28;4996783;28;45310;-69
2021/12/25 09:16:17;;;;;;;;;29.33;28.00;;;;;12.24;74.19;99969.38;4998194;28;45237;-68
2021/12/25 09:18:43;;;;;;;;;28.33;26.33;;;;;12.38;74.14;99997.09;4997606;28;46581;-67
2021/12/25 09:21:09;;;;;;;;;28.67;25.67;;;;;12.38;74.14;100003.28;4998014;28;45901;-68
2021/12/25 09:23:35;;;;;;;;;27.00;24.33;;;;;12.01;73.91;99933.81;4998116;28;45477;-68
2021/12/25 09:26:00;;;;;;;;;28.67;26.00;;;;;12.40;74.40;100001.25;4997889;28;45266;-68
2021/12/25 09:28:26;;;;;;;;;29.33;24.33;;;;;12.44;73.96;100007.09;4997768;28;46613;-68
2021/12/25 09:30:51;;;;;;;;;27.33;24.00;;;;;12.37;74.15;99998.94;4997604;28;45337;-68
2021/12/25 09:33:17;;;;;;;;;26.33;25.00;;;;;12.29;74.05;99983.00;4997653;28;45490;-69
2021/12/25 09:35:42;;;;;;;;;23.33;22.00;;;;;12.30;73.61;99992.66;4997367;28;45540;-68
2021/12/25 09:38:07;;;;;;;;;21.00;17.00;;;;;12.28;73.55;99978.69;4997779;28;45312;-68
2021/12/25 09:40:33;;;;;;;;;25.67;25.00;;;;;12.42;73.55;100007.28;4997418;28;45606;-68
2021/12/25 09:42:59;;;;;;;;;24.67;22.67;;;;;12.47;73.73;100012.91;4997679;28;45405;-68
2021/12/25 09:45:24;;;;;;;;;24.33;23.67;;;;;12.54;73.61;100012.19;4997901;28;45336;-68
2021/12/25 09:47:50;;;;;;;;;24.00;22.00;;;;;12.56;74.05;100007.53;5012415;28;46626;-67
2021/12/25 09:50:16;;;;;;;;;22.33;21.67;;;;;12.55;73.41;99998.69;4997272;28;45293;-67
2021/12/25 09:52:42;;;;;;;;;23.00;19.33;;;;;12.57;72.79;100007.34;4997489;28;45204;-69
2021/12/25 09:55:10;;;;;;;;;17.33;17.00;;;;;12.67;72.58;100015.16;5012725;28;45455;-68
2021/12/25 09:57:36;;;;;;;;;20.33;17.00;;;;;12.65;72.38;99993.16;4996764;28;45838;-68
2021/12/25 10:00:29;;;;;;;;;17.33;17.33;;;;;12.74;72.22;99992.09;5012558;28;46241;-69
2021/12/25 10:02:56;;;;;;;;;16.67;16.33;;;;;12.92;71.77;100011.31;4995416;28;45658;-69
2021/12/25 10:05:33;;;;;;;;;17.00;16.67;;;;;12.97;71.53;100013.44;4995542;28;45562;-68
2021/12/25 10:08:03;;;;;;;;;19.00;14.67;;;;;13.02;70.72;100011.94;4995768;28;47727;-68
2021/12/25 10:10:40;;;;;;;;;12.33;11.67;;;;;13.05;71.23;100019.56;4996972;28;45463;-68
2021/12/25 10:13:37;;;;;;;;;17.33;15.33;;;;;13.11;71.18;100018.03;4996854;28;45503;-68
2021/12/25 10:16:29;;;;;;;;;18.67;16.00;;;;;13.17;71.03;100021.81;4991261;28;45513;-68
2021/12/25 10:19:16;;;;;;;;;89.50;77.25;;;;;13.05;70.43;99990.22;4996490;28;47815;-69
2021/12/25 10:21:41;;;;;;;;;44.67;34.00;;;;;13.23;70.66;100007.81;4997163;28;45367;-67
2021/12/25 10:24:10;;;;;;;;;21.00;19.00;;;;;13.25;70.37;100003.13;4996842;28;45448;-72
2021/12/25 10:26:38;;;;;;;;;24.67;20.67;;;;;13.31;70.57;99994.38;4997103;28;45393;-67
2021/12/25 10:29:25;;;;;;;;;21.33;20.00;;;;;13.34;70.13;99994.84;4996518;28;46202;-67
2021/12/25 10:31:58;;;;;;;;;20.00;18.67;;;;;13.42;70.15;100004.63;4996684;28;45286;-68
2021/12/25 10:34:27;;;;;;;;;18.00;16.50;;;;;13.39;70.07;99991.63;4996650;28;45521;-69
2021/12/25 10:36:53;;;;;;;;;19.00;19.00;;;;;13.40;70.20;99990.59;4996900;28;45445;-67
2021/12/25 10:39:22;;;;;;;;;19.67;17.00;;;;;13.37;70.15;99994.47;4996339;28;45439;-68
2021/12/25 10:42:03;;;;;;;;;22.67;17.00;;;;;13.35;70.76;99995.66;4996447;28;45280;-67
2021/12/25 10:44:33;;;;;;;;;20.33;19.67;;;;;13.37;70.22;100007.00;4995339;28;45321;-68
2021/12/25 10:47:00;;;;;;;;;28.33;26.33;;;;;13.32;70.21;100004.03;4996454;28;45524;-69
2021/12/25 10:49:29;;;;;;;;;19.33;18.33;;;;;13.19;70.34;99985.94;4996168;28;47662;-66
2021/12/25 10:51:55;;;;;;;;;18.00;17.33;;;;;13.27;70.46;100006.44;4995255;28;45864;-67
2021/12/25 10:54:37;;;;;;;;;20.67;20.67;;;;;13.16;70.98;99986.28;4996596;28;45536;-67
2021/12/25 10:57:02;;;;;;;;;21.67;20.33;;;;;12.27;70.63;99841.09;4996547;28;45579;-68
2021/12/25 10:59:42;;;;;;;;;22.00;21.00;;;;;13.15;71.47;99981.13;4996323;28;47731;-68
2021/12/25 11:02:07;;;;;;;;;20.33;18.00;;;;;13.21;71.31;99988.44;4996761;28;45207;-67
2021/12/25 11:04:36;;;;;;;;;18.67;18.00;;;;;13.21;71.43;99983.09;4995317;28;45705;-67
2021/12/25 11:07:18;;;;;;;;;19.67;16.67;;;;;13.12;71.00;99965.47;4976936;28;45503;-67
2021/12/25 11:10:21;;;;;;;;;19.00;18.67;;;;;13.19;71.17;99979.78;4976409;28;45570;-68
2021/12/25 11:12:47;;;;;;;;;18.67;15.67;;;;;12.61;71.42;99885.16;4916270;28;45418;-68
2021/12/25 11:15:30;;;;;;;;;20.33;19.00;;;;;12.55;71.38;99864.56;4916575;28;45571;-69
2021/12/25 11:18:05;;;;;;;;;22.00;21.00;;;;;13.17;71.38;99965.75;4951566;28;45632;-68
2021/12/25 11:20:37;;;;;;;;;25.67;23.67;;;;;13.24;71.33;99966.75;4976357;28;47541;-67
2021/12/25 11:23:06;;;;;;;;;20.00;20.00;;;;;13.27;71.47;99966.38;4976674;28;45380;-68
2021/12/25 11:25:34;;;;;;;;;18.33;18.33;;;;;13.25;71.32;99960.41;4979068;28;45392;-67
2021/12/25 11:28:01;;;;;;;;;21.67;18.33;;;;;13.36;71.42;99965.28;4978915;28;45622;-66
2021/12/25 11:30:31;;;;;;;;;20.00;20.00;;;;;13.38;71.21;99964.09;4979768;28;45602;-67
2021/12/25 11:32:59;;;;;;;;;23.67;23.67;;;;;13.33;71.47;99938.97;4979731;28;45489;-68
2021/12/25 11:35:24;;;;;;;;;18.00;17.00;;;;;13.44;70.70;99956.41;4989643;28;45484;-67
2021/12/25 11:37:52;;;;;;;;;22.00;19.33;;;;;13.16;71.03;99902.72;4999253;28;45480;-67
2021/12/25 11:40:21;;;;;;;;;16.67;15.33;;;;;13.40;71.07;99940.72;4999120;28;46514;-69
2021/12/25 11:42:56;;;;;;;;;24.67;22.67;;;;;13.44;71.28;99943.88;4999335;28;45487;-68
2021/12/25 11:45:30;;;;;;;;;22.00;20.00;;;;;13.51;70.84;99947.47;4999230;28;45478;-69
2021/12/25 11:48:11;;;;;;;;;1.33;0.00;;;;;13.51;70.79;99949.31;4999340;28;45322;-69
2021/12/25 11:50:41;;;;;;;;;20.67;19.67;;;;;13.55;71.22;99943.41;4999205;28;46045;-70
2021/12/25 11:53:42;;;;;;;;;21.67;19.33;;;;;13.58;71.32;99942.22;4999040;28;45502;-70
2021/12/25 11:58:52;;;;;;;;;19.33;18.67;;;;;13.63;70.36;99943.34;4999186;28;45567;-69
2021/12/25 12:01:27;;;;;;;;;26.00;22.00;;;;;13.68;70.39;99942.78;4998966;28;46593;-67
2021/12/25 12:03:57;;;;;;;;;21.33;20.00;;;;;13.70;70.56;99944.25;4998889;28;45334;-67
2021/12/25 12:06:44;;;;;;;;;26.33;24.33;;;;;13.73;70.24;99940.38;4980937;28;45238;-68
2021/12/25 12:09:12;;;;;;;;;26.00;24.67;;;;;13.74;70.80;99939.38;4979531;28;45457;-67
2021/12/25 12:11:40;;;;;;;;;23.67;22.33;;;;;13.72;70.53;99933.38;4978845;28;46846;-68
2021/12/25 12:14:27;;;;;;;;;25.00;24.33;;;;;13.43;70.52;99907.50;4979203;28;45417;-69
2021/12/25 12:16:56;;;;;;;;;29.67;25.67;;;;;13.59;70.37;99927.84;4979174;28;45384;-68
2021/12/25 12:19:42;;;;;;;;;28.67;25.67;;;;;13.59;70.74;99934.00;4979099;28;45446;-69
2021/12/25 12:22:08;;;;;;;;;23.00;23.00;;;;;13.56;70.68;99937.06;4978690;28;46060;-72
2021/12/25 12:26:59;;;;;;;;;33.00;27.67;;;;;13.01;70.80;99867.97;4979139;28;45532;-68
2021/12/25 12:29:41;;;;;;;;;34.00;29.67;;;;;13.53;71.19;99939.25;4979330;28;45407;-67
2021/12/25 12:32:19;;;;;;;;;36.33;30.00;;;;;13.36;71.11;99919.91;4979314;28;46294;-67
2021/12/25 12:34:47;;;;;;;;;36.00;32.00;;;;;13.25;71.28;99920.38;4978892;28;45452;-68
2021/12/25 12:37:18;;;;;;;;;51.50;42.50;;;;;13.39;71.33;99940.91;4978569;28;45326;-68
2021/12/25 12:39:53;;;;;;;;;28.00;25.67;;;;;13.38;71.45;99937.41;4978593;28;45579;-67